createdAt,value
2023-02-15T00:01:59.701Z,37.63
2023-02-15T00:07:01.507Z,35.50
2023-02-15T00:12:03.598Z,40.23
2023-02-15T00:17:05.528Z,39.67
2023-02-15T00:22:07.491Z,38.53
2023-02-15T00:27:10.328Z,37.33
2023-02-15T00:32:12.146Z,41.63
2023-02-15T00:37:14.005Z,36.03
2023-02-15T00:42:15.820Z,33.50
2023-02-15T00:47:17.843Z,35.13
2023-02-15T00:52:19.640Z,35.57
2023-02-15T00:57:21.472Z,32.90
2023-02-15T01:02:23.344Z,33.83
2023-02-15T01:07:25.168Z,26.47
2023-02-15T01:12:30.309Z,34.50
2023-02-15T01:17:33.228Z,32.93
2023-02-15T01:22:35.056Z,29.87
2023-02-15T01:27:36.923Z,29.53
2023-02-15T01:32:38.748Z,26.90
2023-02-15T01:37:40.624Z,28.40
2023-02-15T01:42:42.584Z,30.73
2023-02-15T01:48:28.954Z,28.37
2023-02-15T01:53:43.590Z,28.33
2023-02-15T01:58:46.497Z,26.40
2023-02-15T02:04:09.251Z,29.73
2023-02-15T02:09:11.394Z,29.33
2023-02-15T02:14:13.842Z,25.77
2023-02-15T02:19:34.254Z,27.83
2023-02-15T02:24:54.276Z,31.30
2023-02-15T02:30:12.258Z,28.60
2023-02-15T02:35:16.985Z,25.43
2023-02-15T02:40:34.173Z,26.73
2023-02-15T02:45:48.891Z,26.03
2023-02-15T02:50:52.498Z,22.90
2023-02-15T02:55:58.818Z,23.83
2023-02-15T03:01:09.494Z,24.00
2023-02-15T03:06:24.925Z,23.63
2023-02-15T03:11:27.038Z,23.67
2023-02-15T03:16:29.503Z,22.37
2023-02-15T03:21:42.200Z,22.60
2023-02-15T03:26:48.142Z,23.20
2023-02-15T03:31:57.845Z,21.33
2023-02-15T03:37:06.144Z,21.53
2023-02-15T03:42:22.102Z,22.87
2023-02-15T03:47:29.620Z,19.93
2023-02-15T03:52:34.949Z,22.33
2023-02-15T03:57:56.089Z,22.07
2023-02-15T04:03:17.123Z,20.40
2023-02-15T04:08:18.984Z,17.83
2023-02-15T04:13:21.972Z,19.33
2023-02-15T04:18:42.279Z,17.60
2023-02-15T04:24:02.532Z,18.83
2023-02-15T04:29:04.391Z,19.30
2023-02-15T04:34:06.214Z,21.90
2023-02-15T04:39:09.217Z,17.40
2023-02-15T04:44:11.493Z,18.47
2023-02-15T04:49:13.451Z,18.37
2023-02-15T04:54:15.283Z,13.20
2023-02-15T04:59:17.126Z,13.33
2023-02-15T05:04:19.111Z,14.47
2023-02-15T05:09:20.911Z,13.90
2023-02-15T05:14:22.763Z,16.10
2023-02-15T05:19:25.591Z,15.73
2023-02-15T05:24:46.005Z,17.93
2023-02-15T05:29:47.974Z,20.20
2023-02-15T05:34:49.817Z,22.27
2023-02-15T05:39:51.603Z,21.17
2023-02-15T05:44:53.853Z,17.27
2023-02-15T05:49:55.945Z,17.57
2023-02-15T05:54:57.804Z,18.87
2023-02-15T05:59:59.623Z,18.33
2023-02-15T06:05:01.494Z,19.63
2023-02-15T06:10:04.908Z,19.20
2023-02-15T06:15:07.320Z,15.20
2023-02-15T06:20:09.838Z,16.90
2023-02-15T06:25:12.307Z,21.07
2023-02-15T06:30:14.645Z,16.40
2023-02-15T06:35:16.496Z,13.50
2023-02-15T06:40:18.850Z,16.93
2023-02-15T06:45:20.683Z,15.03
2023-02-15T06:50:22.524Z,14.10
2023-02-15T06:55:24.462Z,14.70
2023-02-15T07:00:26.416Z,16.60
2023-02-15T07:05:32.291Z,17.40
2023-02-15T07:10:34.305Z,17.87
2023-02-15T07:15:36.128Z,17.87
2023-02-15T07:20:38.629Z,19.67
2023-02-15T07:25:40.421Z,16.53
2023-02-15T07:30:42.249Z,19.03
2023-02-15T07:35:48.835Z,15.70
2023-02-15T07:40:50.618Z,20.40
2023-02-15T07:45:52.501Z,22.47
2023-02-15T07:50:54.360Z,27.93
2023-02-15T07:56:00.144Z,28.33
2023-02-15T08:01:05.156Z,26.23
2023-02-15T08:06:07.978Z,22.67
2023-02-15T08:11:33.737Z,22.57
2023-02-15T08:16:42.915Z,21.73
2023-02-15T08:21:50.260Z,23.93
2023-02-15T08:26:52.782Z,20.60
2023-02-15T08:31:59.885Z,25.07
2023-02-15T08:37:02.074Z,23.73
2023-02-15T08:42:03.977Z,26.80
2023-02-15T08:47:05.797Z,25.77
2023-02-15T08:52:08.082Z,17.85
2023-02-15T08:57:11.341Z,16.25
2023-02-15T09:02:13.319Z,17.40
2023-02-15T09:07:15.149Z,12.32
2023-02-15T09:12:17.018Z,11.05
2023-02-15T09:17:18.867Z,10.20
2023-02-15T09:22:20.990Z,8.45
2023-02-15T09:27:22.884Z,7.50
2023-02-15T09:32:24.774Z,6.03
2023-02-15T09:37:26.585Z,6.20
2023-02-15T09:42:34.468Z,6.03
2023-02-15T09:48:28.653Z,9.25
2023-02-15T09:53:39.304Z,11.93
2023-02-15T09:58:47.228Z,12.13
2023-02-15T10:03:52.397Z,12.40
2023-02-15T10:09:14.500Z,13.95
2023-02-15T10:14:40.511Z,13.20
2023-02-15T10:20:00.871Z,13.90
2023-02-15T10:25:06.088Z,13.43
2023-02-15T10:30:14.225Z,12.57
2023-02-15T10:35:38.890Z,14.00
2023-02-15T10:41:10.632Z,13.15
2023-02-15T10:46:27.680Z,14.52
2023-02-15T10:51:41.730Z,15.20
2023-02-15T10:57:15.199Z,16.10
2023-02-15T11:03:11.260Z,15.70
2023-02-15T11:08:13.719Z,15.57
2023-02-15T11:13:18.956Z,16.08
2023-02-15T11:18:28.827Z,15.07
2023-02-15T11:23:33.185Z,14.80
2023-02-15T11:28:48.561Z,15.27
2023-02-15T11:34:33.022Z,14.68
2023-02-15T11:39:38.441Z,15.68
2023-02-15T11:44:59.131Z,13.90
2023-02-15T11:50:00.952Z,14.30
2023-02-15T11:55:02.787Z,13.90
2023-02-15T12:00:40.149Z,14.57
2023-02-15T12:05:45.531Z,13.90
2023-02-15T12:10:59.765Z,14.32
2023-02-15T12:16:11.307Z,15.07
2023-02-15T12:21:17.533Z,14.88
2023-02-15T12:26:32.371Z,14.90
2023-02-15T12:31:40.762Z,14.60
2023-02-15T12:36:55.438Z,14.30
2023-02-15T12:42:05.556Z,14.60
2023-02-15T12:47:19.723Z,14.38
2023-02-15T12:52:21.545Z,14.35
2023-02-15T12:57:31.676Z,13.88
2023-02-15T13:02:49.485Z,13.32
2023-02-15T13:07:57.064Z,13.60
2023-02-15T13:12:59.681Z,13.20
2023-02-15T13:18:03.138Z,13.18
2023-02-15T13:23:14.590Z,13.68
2023-02-15T13:28:19.396Z,13.85
2023-02-15T13:33:37.958Z,13.23
2023-02-15T13:39:02.742Z,12.98
2023-02-15T13:44:16.130Z,13.27
2023-02-15T13:49:30.396Z,14.85
2023-02-15T13:54:56.840Z,13.43
2023-02-15T14:00:14.862Z,14.27
2023-02-15T14:05:28.833Z,15.27
2023-02-15T14:11:08.043Z,14.73
2023-02-15T14:16:30.053Z,14.55
2023-02-15T14:21:36.354Z,14.45
2023-02-15T14:26:44.279Z,15.80
2023-02-15T14:31:53.348Z,14.65
2023-02-15T14:36:56.521Z,14.45
2023-02-15T14:42:05.819Z,14.20
2023-02-15T14:47:26.173Z,13.73
2023-02-15T14:52:28.636Z,13.55
2023-02-15T14:57:35.012Z,14.10
2023-02-15T15:02:52.776Z,13.90
2023-02-15T15:08:00.873Z,13.88
2023-02-15T15:13:31.516Z,12.80
2023-02-15T15:18:48.800Z,14.18
2023-02-15T15:23:51.181Z,14.10
2023-02-15T15:28:53.005Z,14.32
2023-02-15T15:34:27.305Z,13.07
2023-02-15T15:39:50.921Z,13.55
2023-02-15T15:45:04.991Z,14.18
2023-02-15T15:50:19.387Z,13.50
2023-02-15T15:55:24.734Z,13.25
2023-02-15T16:00:47.887Z,13.60
2023-02-15T16:05:55.219Z,14.15
2023-02-15T16:10:58.874Z,13.07
2023-02-15T16:16:00.885Z,14.05
2023-02-15T16:21:03.420Z,13.57
2023-02-15T16:26:27.280Z,12.77
2023-02-15T16:31:29.243Z,12.85
2023-02-15T16:36:31.108Z,13.70
2023-02-15T16:41:33.386Z,14.30
2023-02-15T16:46:41.390Z,16.77
2023-02-15T16:51:46.056Z,14.75
2023-02-15T16:56:48.507Z,15.95
2023-02-15T17:01:53.029Z,15.60
2023-02-15T17:07:27.312Z,16.13
2023-02-15T17:12:56.125Z,18.08
2023-02-15T17:18:02.259Z,14.98
2023-02-15T17:23:05.175Z,13.65
2023-02-15T17:28:18.535Z,17.10
2023-02-15T17:33:34.662Z,15.27
2023-02-15T17:38:38.999Z,13.95
2023-02-15T17:43:42.559Z,13.18
2023-02-15T17:48:44.429Z,13.90
2023-02-15T17:54:05.811Z,14.68
2023-02-15T17:59:07.842Z,15.68
2023-02-15T18:04:31.632Z,15.60
2023-02-15T18:09:52.095Z,15.15
2023-02-15T18:14:55.204Z,16.35
2023-02-15T18:19:57.162Z,15.82
2023-02-15T18:24:59.506Z,15.23
2023-02-15T18:30:01.423Z,16.75
2023-02-15T18:35:05.516Z,16.17
2023-02-15T18:40:15.928Z,16.17
2023-02-15T18:45:25.199Z,16.70
2023-02-15T18:50:31.589Z,15.75
2023-02-15T18:55:35.471Z,14.35
2023-02-15T19:00:37.364Z,15.43
2023-02-15T19:05:42.158Z,14.65
2023-02-15T19:10:44.150Z,14.70
2023-02-15T19:15:45.995Z,16.08
2023-02-15T19:20:48.321Z,15.05
2023-02-15T19:25:52.452Z,15.10
2023-02-15T19:30:54.342Z,15.15
2023-02-15T19:35:57.592Z,17.13
2023-02-15T19:41:06.789Z,15.55
2023-02-15T19:46:19.167Z,12.80
2023-02-15T19:51:23.214Z,13.70
2023-02-15T19:56:27.021Z,12.93
2023-02-15T20:01:31.203Z,14.93
2023-02-15T20:06:33.664Z,12.27
2023-02-15T20:11:35.728Z,13.20
2023-02-15T20:16:37.568Z,12.57
2023-02-15T20:21:41.396Z,15.23
2023-02-15T20:26:43.659Z,15.45
2023-02-15T20:31:46.031Z,14.98
2023-02-15T20:36:48.109Z,15.40
2023-02-15T20:41:49.993Z,16.58
2023-02-15T20:46:54.753Z,17.17
2023-02-15T20:51:57.496Z,16.60
2023-02-15T20:56:59.501Z,15.07
2023-02-15T21:02:14.562Z,15.20
2023-02-15T21:07:18.592Z,13.40
2023-02-15T21:12:22.226Z,13.40
2023-02-15T21:17:24.211Z,14.35
2023-02-15T21:22:26.975Z,15.70
2023-02-15T21:27:29.103Z,16.17
2023-02-15T21:32:31.032Z,13.52
2023-02-15T21:37:35.661Z,13.32
2023-02-15T21:42:55.964Z,13.32
2023-02-15T21:47:57.831Z,11.68
2023-02-15T21:52:59.972Z,13.00
2023-02-15T21:58:02.256Z,12.65
2023-02-15T22:03:05.595Z,12.63
2023-02-15T22:08:13.296Z,12.85
2023-02-15T22:13:19.892Z,11.77
2023-02-15T22:18:24.868Z,12.15
2023-02-15T22:23:26.800Z,12.15
2023-02-15T22:28:33.896Z,13.60
2023-02-15T22:33:35.896Z,13.55
2023-02-15T22:38:37.724Z,12.98
2023-02-15T22:43:42.223Z,14.02
2023-02-15T22:48:47.461Z,12.85
2023-02-15T22:53:51.847Z,13.57
2023-02-15T22:59:02.587Z,12.70
2023-02-15T23:04:04.828Z,13.10
2023-02-15T23:09:06.650Z,12.75
2023-02-15T23:14:38.429Z,14.25
2023-02-15T23:19:40.318Z,12.80
2023-02-15T23:24:42.987Z,13.55
2023-02-15T23:29:44.837Z,13.52
2023-02-15T23:34:46.688Z,13.85
2023-02-15T23:40:06.981Z,14.65
2023-02-15T23:45:23.323Z,13.50
2023-02-15T23:50:27.488Z,13.38
2023-02-15T23:55:38.677Z,12.65
